createdAt,value
2022-08-14T00:01:24.119Z,98934.81
2022-08-14T00:03:31.897Z,98929.31
2022-08-14T00:05:33.805Z,98931.72
2022-08-14T00:07:42.067Z,98926.91
2022-08-14T00:10:01.561Z,98929.66
2022-08-14T00:12:23.788Z,98929.31
2022-08-14T00:14:28.411Z,98921.75
2022-08-14T00:16:40.447Z,98925.34
2022-08-14T00:19:06.514Z,98923.31
2022-08-14T00:21:10.840Z,98916.41
2022-08-14T00:23:18.800Z,98917.09
2022-08-14T00:25:20.831Z,98918.81
2022-08-14T00:27:22.733Z,98913.50
2022-08-14T00:29:25.402Z,98911.97
2022-08-14T00:31:34.745Z,98910.06
2022-08-14T00:33:52.048Z,98913.66
2022-08-14T00:36:35.222Z,98917.59
2022-08-14T00:38:18.496Z,98923.47
2022-08-14T00:40:33.582Z,98918.16
2022-08-14T00:42:56.054Z,98921.22
2022-08-14T00:44:59.556Z,98909.19
2022-08-14T00:47:10.810Z,98918.16
2022-08-14T00:49:14.716Z,98915.41
2022-08-14T00:51:17.306Z,98910.91
2022-08-14T00:53:19.308Z,98910.41
2022-08-14T00:55:23.359Z,98920.91
2022-08-14T00:57:27.746Z,98911.75
2022-08-14T00:59:29.770Z,98909.91
2022-08-14T01:01:33.735Z,98900.09
2022-08-14T01:03:39.807Z,98913.50
2022-08-14T01:05:51.660Z,98903.50
2022-08-14T01:07:58.516Z,98908.16
2022-08-14T01:10:02.451Z,98906.97
2022-08-14T01:12:06.550Z,98912.47
2022-08-14T01:14:25.236Z,98908.66
2022-08-14T01:16:31.499Z,98916.44
2022-08-14T01:18:57.882Z,98917.63
2022-08-14T01:21:07.374Z,98910.22
2022-08-14T01:23:16.179Z,98907.47
2022-08-14T01:25:20.905Z,98914.19
2022-08-14T01:27:24.673Z,98913.34
2022-08-14T01:29:59.329Z,98914.19
2022-08-14T01:31:52.628Z,98910.41
2022-08-14T01:33:59.734Z,98913.34
2022-08-14T01:36:22.781Z,98913.69
2022-08-14T01:38:26.630Z,98908.84
2022-08-14T01:40:36.473Z,98910.06
2022-08-14T01:42:44.391Z,98904.22
2022-08-14T01:44:54.322Z,98907.28
2022-08-14T01:47:05.863Z,98908.13
2022-08-14T01:49:11.313Z,98913.13
2022-08-14T01:51:18.985Z,98911.38
2022-08-14T01:53:22.512Z,98905.72
2022-08-14T01:55:32.352Z,98911.94
2022-08-14T01:58:00.219Z,98901.78
2022-08-14T02:00:00.746Z,98901.78
2022-08-14T02:02:19.598Z,98902.47
2022-08-14T02:04:55.773Z,98897.81
2022-08-14T02:06:47.456Z,98895.59
2022-08-14T02:08:56.434Z,98892.31
2022-08-14T02:11:18.863Z,98886.47
2022-08-14T02:13:22.139Z,98893.19
2022-08-14T02:15:25.785Z,98890.09
2022-08-14T02:17:30.631Z,98888.03
2022-08-14T02:19:34.669Z,98884.94
2022-08-14T02:21:43.712Z,98884.22
2022-08-14T02:23:53.607Z,98884.44
2022-08-14T02:25:55.787Z,98878.38
2022-08-14T02:28:25.441Z,98883.19
2022-08-14T02:30:19.891Z,98888.88
2022-08-14T02:32:30.624Z,98887.69
2022-08-14T02:34:38.754Z,98887.13
2022-08-14T02:37:03.537Z,98885.59
2022-08-14T02:39:09.570Z,98877.13
2022-08-14T02:41:13.281Z,98877.84
2022-08-14T02:43:15.049Z,98875.63
2022-08-14T02:45:17.677Z,98872.19
2022-08-14T02:47:21.022Z,98877.19
2022-08-14T02:49:33.965Z,98890.94
2022-08-14T02:51:37.074Z,98889.88
2022-08-14T02:53:42.294Z,98892.28
2022-08-14T02:55:44.311Z,98891.78
2022-08-14T02:57:51.920Z,98892.81
2022-08-14T03:00:00.419Z,98889.88
2022-08-14T03:02:04.623Z,98892.63
2022-08-14T03:04:10.648Z,98891.78
2022-08-14T03:06:20.396Z,98895.03
2022-08-14T03:08:32.227Z,98883.03
2022-08-14T03:10:34.746Z,98885.59
2022-08-14T03:12:37.006Z,98885.09
2022-08-14T03:14:44.163Z,98880.94
2022-08-14T03:16:49.380Z,98889.19
2022-08-14T03:18:54.537Z,98887.63
2022-08-14T03:20:56.762Z,98885.22
2022-08-14T03:23:02.959Z,98888.31
2022-08-14T03:25:06.721Z,98892.97
2022-08-14T03:27:14.054Z,98881.63
2022-08-14T03:29:21.353Z,98884.13
2022-08-14T03:31:27.955Z,98887.88
2022-08-14T03:33:37.428Z,98891.81
2022-08-14T03:36:05.708Z,98888.75
2022-08-14T03:39:11.618Z,98887.72
2022-08-14T03:40:33.529Z,98886.88
2022-08-14T03:42:36.574Z,98900.06
2022-08-14T03:45:27.700Z,98886.31
2022-08-14T03:47:02.852Z,98892.84
2022-08-14T03:49:06.643Z,98893.91
2022-08-14T03:51:15.084Z,98895.25
2022-08-14T03:53:16.909Z,98893.69
2022-08-14T03:55:20.226Z,98898.47
2022-08-14T03:57:22.744Z,98890.22
2022-08-14T03:59:24.706Z,98892.09
2022-08-14T04:01:41.500Z,98891.25
2022-08-14T04:03:48.947Z,98891.03
2022-08-14T04:05:57.265Z,98898.41
2022-08-14T04:08:22.822Z,98893.25
2022-08-14T04:10:26.338Z,98892.69
2022-08-14T04:12:34.241Z,98897.00
2022-08-14T04:14:37.474Z,98899.75
2022-08-14T04:16:43.516Z,98904.00
2022-08-14T04:18:49.474Z,98890.56
2022-08-14T04:20:54.223Z,98900.22
2022-08-14T04:22:57.321Z,98895.28
2022-08-14T04:25:04.847Z,98896.81
2022-08-14T04:27:09.920Z,98900.56
2022-08-14T04:29:15.481Z,98898.84
2022-08-14T04:32:56.804Z,98910.53
2022-08-14T04:33:42.381Z,98909.34
2022-08-14T04:35:56.788Z,98912.47
2022-08-14T04:38:36.836Z,98910.91
2022-08-14T04:40:59.003Z,98912.78
2022-08-14T04:43:20.896Z,98909.66
2022-08-14T04:45:24.629Z,98912.59
2022-08-14T04:47:46.214Z,98906.91
2022-08-14T04:49:57.231Z,98901.63
2022-08-14T04:52:03.084Z,98906.78
2022-08-14T04:54:17.308Z,98907.16
2022-08-14T04:56:31.318Z,98904.41
2022-08-14T04:58:36.807Z,98899.84
2022-08-14T05:00:40.140Z,98906.88
2022-08-14T05:02:43.784Z,98906.03
2022-08-14T05:04:57.217Z,98903.47
2022-08-14T05:07:00.150Z,98911.53
2022-08-14T05:09:02.011Z,98914.31
2022-08-14T05:11:06.687Z,98906.22
2022-08-14T05:13:15.707Z,98902.50
2022-08-14T05:15:21.370Z,98908.50
2022-08-14T05:17:43.700Z,98910.22
2022-08-14T05:21:04.380Z,98912.00
2022-08-14T05:22:17.445Z,98904.63
2022-08-14T05:24:21.032Z,98912.53
2022-08-14T05:26:23.769Z,98907.94
2022-08-14T05:28:27.587Z,98915.13
2022-08-14T05:30:30.260Z,98921.34
2022-08-14T05:32:32.129Z,98913.47
2022-08-14T05:34:33.982Z,98909.00
2022-08-14T05:36:36.454Z,98912.63
2022-08-14T05:38:44.952Z,98919.13
2022-08-14T05:40:49.301Z,98912.47
2022-08-14T05:42:52.733Z,98915.91
2022-08-14T05:44:55.847Z,98915.41
2022-08-14T05:46:59.229Z,98911.09
2022-08-14T05:49:01.174Z,98906.81
2022-08-14T05:51:03.796Z,98909.53
2022-08-14T05:53:05.706Z,98912.63
2022-08-14T05:55:09.338Z,98916.53
2022-08-14T05:57:11.227Z,98914.31
2022-08-14T05:59:13.219Z,98915.66
2022-08-14T06:01:18.984Z,98929.25
2022-08-14T06:03:25.302Z,98921.50
2022-08-14T06:05:29.427Z,98923.16
2022-08-14T06:07:31.436Z,98915.22
2022-08-14T06:09:35.986Z,98915.50
2022-08-14T06:11:42.468Z,98913.38
2022-08-14T06:13:46.085Z,98915.75
2022-08-14T06:15:49.497Z,98914.47
2022-08-14T06:17:58.558Z,98917.66
2022-08-14T06:20:01.286Z,98916.38
2022-08-14T06:22:03.214Z,98917.84
2022-08-14T06:24:05.385Z,98915.31
2022-08-14T06:26:12.422Z,98909.41
2022-08-14T06:28:26.962Z,98907.59
2022-08-14T06:30:45.813Z,98906.75
2022-08-14T06:32:48.758Z,98900.59
2022-08-14T06:35:11.282Z,98906.69
2022-08-14T06:37:17.135Z,98904.84
2022-08-14T06:39:19.305Z,98901.34
2022-08-14T06:41:59.356Z,98892.97
2022-08-14T06:44:01.717Z,98891.50
2022-08-14T06:46:04.240Z,98884.66
2022-08-14T06:48:17.112Z,98888.84
2022-08-14T06:50:21.824Z,98892.75
2022-08-14T06:52:30.298Z,98891.41
2022-08-14T06:54:32.123Z,98878.03
2022-08-14T06:56:34.031Z,98883.25
2022-08-14T06:58:36.964Z,98885.13
2022-08-14T07:00:39.475Z,98890.41
2022-08-14T07:03:07.849Z,98887.38
2022-08-14T07:05:32.720Z,98882.25
2022-08-14T07:07:41.429Z,98885.91
2022-08-14T07:09:51.201Z,98888.56
2022-08-14T07:11:53.650Z,98888.16
2022-08-14T07:13:55.885Z,98881.44
2022-08-14T07:16:00.462Z,98884.09
2022-08-14T07:18:03.750Z,98884.53
2022-08-14T07:20:10.770Z,98880.13
2022-08-14T07:22:17.759Z,98876.59
2022-08-14T07:24:31.010Z,98878.13
2022-08-14T07:26:33.548Z,98876.06
2022-08-14T07:28:43.554Z,98879.97
2022-08-14T07:30:50.779Z,98876.56
2022-08-14T07:32:53.491Z,98883.44
2022-08-14T07:34:57.092Z,98874.97
2022-08-14T07:37:01.463Z,98876.84
2022-08-14T07:39:12.277Z,98879.88
2022-08-14T07:41:16.594Z,98874.34
2022-08-14T07:43:19.769Z,98866.44
2022-08-14T07:45:23.388Z,98870.78
2022-08-14T07:47:25.356Z,98862.91
2022-08-14T07:49:27.536Z,98862.28
2022-08-14T07:51:34.489Z,98868.28
2022-08-14T07:53:41.167Z,98867.00
2022-08-14T07:55:43.226Z,98867.00
2022-08-14T07:57:46.593Z,98857.19
2022-08-14T07:59:49.070Z,98861.69
2022-08-14T08:01:53.300Z,98857.63
2022-08-14T08:04:03.378Z,98855.09
2022-08-14T08:06:10.595Z,98867.72
2022-08-14T08:08:26.493Z,98857.47
2022-08-14T08:11:01.693Z,98857.88
2022-08-14T08:12:56.185Z,98851.03
2022-08-14T08:15:07.027Z,98861.50
2022-08-14T08:17:10.756Z,98860.00
2022-08-14T08:19:14.169Z,98852.09
2022-08-14T08:21:17.946Z,98854.88
2022-08-14T08:23:22.375Z,98846.28
2022-08-14T08:25:39.979Z,98846.53
2022-08-14T08:27:44.860Z,98840.72
2022-08-14T08:29:50.988Z,98838.97
2022-08-14T08:31:53.216Z,98847.53
2022-08-14T08:33:57.981Z,98840.44
2022-08-14T08:36:08.142Z,98838.47
2022-08-14T08:39:17.337Z,98838.91
2022-08-14T08:40:42.835Z,98830.25
2022-08-14T08:42:45.078Z,98827.63
2022-08-14T08:44:54.458Z,98823.13
2022-08-14T08:47:01.626Z,98826.91
2022-08-14T08:49:06.203Z,98812.75
2022-08-14T08:51:09.883Z,98817.00
2022-08-14T08:53:13.561Z,98816.13
2022-08-14T08:55:16.420Z,98819.50
2022-08-14T08:57:21.410Z,98808.00
2022-08-14T08:59:34.197Z,98808.00
2022-08-14T09:01:36.513Z,98803.47
2022-08-14T09:03:43.945Z,98805.97
2022-08-14T09:05:54.715Z,98801.59
2022-08-14T09:08:34.596Z,98799.56
2022-08-14T09:10:38.935Z,98801.41
2022-08-14T09:12:41.181Z,98804.28
2022-08-14T09:14:49.040Z,98802.91
2022-08-14T09:16:52.657Z,98797.88
2022-08-14T09:18:55.240Z,98797.56
2022-08-14T09:20:58.800Z,98801.53
2022-08-14T09:23:01.898Z,98804.09
2022-08-14T09:25:07.279Z,98798.75
2022-08-14T09:27:10.934Z,98795.03
2022-08-14T09:29:24.143Z,98797.97
2022-08-14T09:31:42.566Z,98788.88
2022-08-14T09:34:27.484Z,98785.50
2022-08-14T09:36:51.900Z,98778.28
2022-08-14T09:39:21.138Z,98776.50
2022-08-14T09:42:20.313Z,98773.38
2022-08-14T09:44:16.376Z,98763.97
2022-08-14T09:46:27.780Z,98770.56
2022-08-14T09:48:30.942Z,98778.84
2022-08-14T09:50:56.078Z,98775.91
2022-08-14T09:52:59.521Z,98762.81
2022-08-14T09:55:02.834Z,98761.19
2022-08-14T09:57:06.878Z,98772.09
2022-08-14T09:59:14.928Z,98763.28
2022-08-14T10:01:18.997Z,98744.34
2022-08-14T10:03:34.609Z,98748.84
2022-08-14T10:05:37.912Z,98748.16
2022-08-14T10:07:53.398Z,98747.06
2022-08-14T10:10:02.256Z,98746.72
2022-08-14T10:12:05.481Z,98743.09
2022-08-14T10:14:21.136Z,98741.28
2022-08-14T10:16:47.334Z,98734.00
2022-08-14T10:18:52.096Z,98735.69
2022-08-14T10:21:01.072Z,98735.22
2022-08-14T10:23:30.075Z,98740.28
2022-08-14T10:25:47.445Z,98727.41
2022-08-14T10:27:58.407Z,98723.03
2022-08-14T10:30:01.202Z,98719.06
2022-08-14T10:32:17.450Z,98726.84
2022-08-14T10:34:35.827Z,98719.59
2022-08-14T10:36:47.858Z,98720.44
2022-08-14T10:39:01.073Z,98720.91
2022-08-14T10:41:17.214Z,98725.41
2022-08-14T10:43:25.782Z,98714.72
2022-08-14T10:45:34.078Z,98714.38
2022-08-14T10:48:02.438Z,98705.13
2022-08-14T10:50:01.913Z,98714.75
2022-08-14T10:52:09.094Z,98716.44
2022-08-14T10:54:35.277Z,98712.13
2022-08-14T10:56:35.714Z,98713.22
2022-08-14T10:58:37.542Z,98714.06
2022-08-14T11:00:47.078Z,98712.13
2022-08-14T11:03:13.350Z,98712.81
2022-08-14T11:05:24.941Z,98710.84
2022-08-14T11:07:27.996Z,98696.03
2022-08-14T11:09:31.588Z,98697.63
2022-08-14T11:11:43.693Z,98693.66
2022-08-14T11:13:46.601Z,98694.38
2022-08-14T11:15:49.402Z,98702.53
2022-08-14T11:17:51.798Z,98697.56
2022-08-14T11:19:58.372Z,98693.78
2022-08-14T11:22:03.143Z,98691.72
2022-08-14T11:24:50.739Z,98699.00
2022-08-14T11:26:38.699Z,98700.56
2022-08-14T11:28:47.129Z,98697.50
2022-08-14T11:30:53.638Z,98699.69
2022-08-14T11:32:58.652Z,98709.38
2022-08-14T11:35:03.525Z,98702.25
2022-08-14T11:37:23.679Z,98699.84
2022-08-14T11:39:34.637Z,98702.28
2022-08-14T11:41:55.742Z,98703.13
2022-08-14T11:43:59.890Z,98695.13
2022-08-14T11:46:03.503Z,98694.63
2022-08-14T11:49:03.104Z,98698.41
2022-08-14T11:50:47.390Z,98703.13
2022-08-14T11:52:50.878Z,98685.28
2022-08-14T11:54:58.491Z,98682.44
2022-08-14T11:57:00.755Z,98685.72
2022-08-14T11:59:02.717Z,98681.72
2022-08-14T12:01:09.513Z,98683.06
2022-08-14T12:03:14.383Z,98679.22
2022-08-14T12:05:17.122Z,98672.63
2022-08-14T12:07:20.165Z,98680.66
2022-08-14T12:09:33.867Z,98673.25
2022-08-14T12:11:43.454Z,98677.63
2022-08-14T12:13:56.162Z,98674.97
2022-08-14T12:16:20.823Z,98667.53
2022-08-14T12:18:36.647Z,98673.13
2022-08-14T12:20:45.593Z,98675.41
2022-08-14T12:22:48.431Z,98663.06
2022-08-14T12:24:54.631Z,98664.50
2022-08-14T12:26:57.804Z,98665.97
2022-08-14T12:29:12.920Z,98661.59
2022-08-14T12:31:20.573Z,98655.13
2022-08-14T12:33:25.697Z,98659.00
2022-08-14T12:35:41.160Z,98658.91
2022-08-14T12:37:52.714Z,98652.72
2022-08-14T12:39:55.705Z,98658.06
2022-08-14T12:42:08.339Z,98653.31
2022-08-14T12:44:16.013Z,98650.63
2022-08-14T12:46:27.028Z,98655.50
2022-08-14T12:48:32.569Z,98655.88
2022-08-14T12:50:40.225Z,98650.63
2022-08-14T12:53:11.273Z,98654.28
2022-08-14T12:55:14.615Z,98646.09
2022-08-14T12:57:20.062Z,98637.59
2022-08-14T12:59:30.900Z,98646.94
2022-08-14T13:02:00.467Z,98640.50
2022-08-14T13:04:13.294Z,98644.53
2022-08-14T13:06:17.791Z,98636.75
2022-08-14T13:08:33.097Z,98637.59
2022-08-14T13:10:51.368Z,98635.88
2022-08-14T13:13:15.827Z,98622.03
2022-08-14T13:15:19.459Z,98628.81
2022-08-14T13:17:23.153Z,98622.66
2022-08-14T13:19:28.241Z,98622.88
2022-08-14T13:21:58.323Z,98625.56
2022-08-14T13:23:55.017Z,98622.59
2022-08-14T13:26:00.558Z,98620.28
2022-08-14T13:28:04.335Z,98615.25
2022-08-14T13:30:14.430Z,98615.53
2022-08-14T13:32:25.775Z,98615.00
2022-08-14T13:34:28.887Z,98608.22
2022-08-14T13:36:51.576Z,98604.06
2022-08-14T13:38:54.050Z,98607.03
2022-08-14T13:40:56.801Z,98609.22
2022-08-14T13:42:58.575Z,98603.50
2022-08-14T13:45:03.736Z,98593.75
2022-08-14T13:47:06.902Z,98591.69
2022-08-14T13:49:12.358Z,98588.78
2022-08-14T13:51:17.905Z,98586.59
2022-08-14T13:53:23.837Z,98585.50
2022-08-14T13:55:29.048Z,98578.44
2022-08-14T13:57:33.745Z,98576.50
2022-08-14T13:59:38.213Z,98575.66
2022-08-14T14:01:45.924Z,98573.09
2022-08-14T14:03:56.364Z,98581.47
2022-08-14T14:05:58.776Z,98580.22
2022-08-14T14:08:01.038Z,98586.13
2022-08-14T14:10:07.730Z,98583.50
2022-08-14T14:12:37.296Z,98579.00
2022-08-14T14:14:51.279Z,98577.31
2022-08-14T14:16:53.769Z,98582.06
2022-08-14T14:19:06.148Z,98568.91
2022-08-14T14:21:11.161Z,98572.97
2022-08-14T14:23:17.479Z,98578.28
2022-08-14T14:25:22.259Z,98585.09
2022-08-14T14:27:41.149Z,98578.03
2022-08-14T14:29:51.384Z,98579.25
2022-08-14T14:32:01.581Z,98582.06
2022-08-14T14:34:07.464Z,98584.47
2022-08-14T14:36:26.779Z,98582.78
2022-08-14T14:38:33.631Z,98574.13
2022-08-14T14:40:52.349Z,98587.91
2022-08-14T14:42:57.775Z,98580.63
2022-08-14T14:45:14.324Z,98585.75
2022-08-14T14:47:22.574Z,98578.69
2022-08-14T14:49:32.046Z,98583.53
2022-08-14T14:51:51.400Z,98587.56
2022-08-14T14:53:55.410Z,98584.88
2022-08-14T14:56:49.812Z,98600.28
2022-08-14T14:58:23.515Z,98597.31
2022-08-14T15:00:31.043Z,98600.09
2022-08-14T15:02:36.545Z,98600.94
2022-08-14T15:04:43.419Z,98597.66
2022-08-14T15:06:47.643Z,98595.44
2022-08-14T15:08:57.047Z,98590.38
2022-08-14T15:11:02.025Z,98599.00
2022-08-14T15:13:06.651Z,98602.75
2022-08-14T15:15:09.944Z,98602.25
2022-08-14T15:17:14.245Z,98603.84
2022-08-14T15:19:16.098Z,98604.69
2022-08-14T15:21:18.288Z,98608.69
2022-08-14T15:23:22.905Z,98613.44
2022-08-14T15:25:24.928Z,98604.44
2022-08-14T15:27:26.956Z,98614.06
2022-08-14T15:29:29.255Z,98619.88
2022-08-14T15:31:36.415Z,98608.69
2022-08-14T15:34:13.452Z,98604.84
2022-08-14T15:36:25.887Z,98613.59
2022-08-14T15:38:35.103Z,98615.28
2022-08-14T15:40:43.637Z,98598.84
2022-08-14T15:42:53.694Z,98605.69
2022-08-14T15:45:01.263Z,98614.53
2022-08-14T15:47:07.282Z,98603.84
2022-08-14T15:49:09.188Z,98601.41
2022-08-14T15:51:12.245Z,98609.59
2022-08-14T15:53:14.714Z,98612.25
2022-08-14T15:55:16.650Z,98608.56
2022-08-14T15:57:20.795Z,98615.28
2022-08-14T15:59:22.613Z,98602.53
2022-08-14T16:01:50.668Z,98600.63
2022-08-14T16:03:49.186Z,98602.81
2022-08-14T16:05:51.071Z,98601.81
2022-08-14T16:07:54.319Z,98596.31
2022-08-14T16:10:27.872Z,98590.75
2022-08-14T16:12:19.213Z,98596.94
2022-08-14T16:14:24.345Z,98591.00
2022-08-14T16:16:47.355Z,98593.19
2022-08-14T16:18:52.263Z,98588.84
2022-08-14T16:20:57.403Z,98591.75
2022-08-14T16:23:00.623Z,98585.44
2022-08-14T16:25:04.245Z,98584.19
2022-08-14T16:27:08.653Z,98594.03
2022-08-14T16:29:15.560Z,98586.38
2022-08-14T16:31:19.102Z,98581.63
2022-08-14T16:33:27.835Z,98579.00
2022-08-14T16:35:59.770Z,98573.41
2022-08-14T16:38:19.936Z,98563.56
2022-08-14T16:42:38.895Z,98576.81
2022-08-14T16:44:52.777Z,98574.25
2022-08-14T16:46:57.360Z,98574.50
2022-08-14T16:49:00.851Z,98574.75
2022-08-14T16:51:06.563Z,98572.91
2022-08-14T16:53:09.644Z,98571.47
2022-08-14T16:55:14.326Z,98576.56
2022-08-14T16:57:32.435Z,98576.94
2022-08-14T16:59:52.204Z,98568.44
2022-08-14T17:01:58.847Z,98569.03
2022-08-14T17:04:09.804Z,98572.06
2022-08-14T17:06:56.157Z,98576.47
2022-08-14T17:08:58.015Z,98576.78
2022-08-14T17:11:09.687Z,98571.06
2022-08-14T17:13:58.081Z,98574.13
2022-08-14T17:16:24.863Z,98587.00
2022-08-14T17:18:47.499Z,98581.16
2022-08-14T17:21:31.605Z,98593.94
2022-08-14T17:23:34.732Z,98592.59
2022-08-14T17:25:37.334Z,98597.91
2022-08-14T17:27:39.257Z,98596.84
2022-08-14T17:29:44.693Z,98597.69
2022-08-14T17:32:06.535Z,98594.06
2022-08-14T17:34:26.197Z,98596.22
2022-08-14T17:36:32.775Z,98600.97
2022-08-14T17:38:39.950Z,98604.47
2022-08-14T17:40:41.901Z,98592.47
2022-08-14T17:42:51.479Z,98604.34
2022-08-14T17:45:01.239Z,98599.25
2022-08-14T17:47:06.540Z,98603.38
2022-08-14T17:49:15.785Z,98601.75
2022-08-14T17:51:24.110Z,98602.19
2022-08-14T17:53:33.664Z,98607.03
2022-08-14T17:56:02.229Z,98608.81
2022-08-14T17:57:58.480Z,98607.69
2022-08-14T18:00:03.482Z,98625.41
2022-08-14T18:02:09.419Z,98629.25
2022-08-14T18:04:28.179Z,98622.59
2022-08-14T18:06:39.988Z,98631.28
2022-08-14T18:08:55.271Z,98625.78
2022-08-14T18:11:00.313Z,98624.25
2022-08-14T18:13:03.301Z,98624.56
2022-08-14T18:15:17.389Z,98629.84
2022-08-14T18:17:23.065Z,98625.38
2022-08-14T18:19:27.771Z,98621.94
2022-08-14T18:21:42.626Z,98628.38
2022-08-14T18:23:51.773Z,98638.94
2022-08-14T18:25:56.684Z,98645.78
2022-08-14T18:27:58.963Z,98652.25
2022-08-14T18:30:33.468Z,98656.63
2022-08-14T18:32:27.318Z,98655.59
2022-08-14T18:34:50.740Z,98662.56
2022-08-14T18:36:57.738Z,98669.41
2022-08-14T18:39:31.661Z,98672.66
2022-08-14T18:41:37.412Z,98665.00
2022-08-14T18:43:45.241Z,98667.41
2022-08-14T18:46:01.766Z,98662.72
2022-08-14T18:48:18.656Z,98668.97
2022-08-14T18:50:27.275Z,98663.00
2022-08-14T18:52:37.056Z,98658.34
2022-08-14T18:54:40.642Z,98653.22
2022-08-14T18:56:57.624Z,98652.19
2022-08-14T18:59:00.381Z,98654.59
2022-08-14T19:01:04.473Z,98651.38
2022-08-14T19:03:30.126Z,98655.06
2022-08-14T19:05:37.692Z,98653.84
2022-08-14T19:07:41.095Z,98653.22
2022-08-14T19:09:57.772Z,98659.25
2022-08-14T19:11:59.864Z,98660.56
2022-08-14T19:14:04.987Z,98655.91
2022-08-14T19:16:07.328Z,98654.88
2022-08-14T19:18:26.021Z,98651.25
2022-08-14T19:20:46.607Z,98663.72
2022-08-14T19:22:53.158Z,98667.78
2022-08-14T19:24:55.536Z,98660.97
2022-08-14T19:27:26.106Z,98655.91
2022-08-14T19:29:37.903Z,98658.88
2022-08-14T19:31:55.011Z,98660.41
2022-08-14T19:34:00.390Z,98663.41
2022-08-14T19:36:29.224Z,98660.19
2022-08-14T19:38:44.273Z,98667.06
2022-08-14T19:40:46.895Z,98659.19
2022-08-14T19:42:52.038Z,98673.72
2022-08-14T19:45:00.548Z,98668.16
2022-08-14T19:47:06.162Z,98673.50
2022-08-14T19:49:14.665Z,98667.97
2022-08-14T19:51:25.576Z,98664.13
2022-08-14T19:53:34.979Z,98658.59
2022-08-14T19:55:39.383Z,98660.94
2022-08-14T19:57:58.669Z,98666.03
2022-08-14T20:00:28.957Z,98668.38
2022-08-14T20:02:31.552Z,98664.31
2022-08-14T20:04:47.390Z,98657.50
2022-08-14T20:07:01.555Z,98663.03
2022-08-14T20:11:03.747Z,98664.97
2022-08-14T20:12:00.455Z,98664.31
2022-08-14T20:13:59.067Z,98667.09
2022-08-14T20:16:11.989Z,98670.72
2022-08-14T20:18:46.022Z,98661.97
2022-08-14T20:20:40.129Z,98658.56
2022-08-14T20:22:45.508Z,98663.25
2022-08-14T20:24:47.460Z,98664.72
2022-08-14T20:27:16.926Z,98665.81
2022-08-14T20:29:30.006Z,98673.69
2022-08-14T20:31:37.114Z,98674.97
2022-08-14T20:33:47.887Z,98668.16
2022-08-14T20:35:52.246Z,98668.56
2022-08-14T20:37:59.986Z,98666.19
2022-08-14T20:40:23.419Z,98665.13
2022-08-14T20:42:50.452Z,98663.19
2022-08-14T20:45:13.448Z,98659.75
2022-08-14T20:47:18.859Z,98665.28
2022-08-14T20:49:29.081Z,98664.00
2022-08-14T20:51:54.973Z,98664.81
2022-08-14T20:54:04.168Z,98668.22
2022-08-14T20:56:28.421Z,98666.03
2022-08-14T20:58:43.950Z,98670.53
2022-08-14T21:00:52.030Z,98684.16
2022-08-14T21:02:55.650Z,98681.53
2022-08-14T21:05:02.266Z,98671.03
2022-08-14T21:07:25.750Z,98672.06
2022-08-14T21:10:05.304Z,98683.38
2022-08-14T21:12:02.935Z,98684.16
2022-08-14T21:14:21.054Z,98685.44
2022-08-14T21:16:35.022Z,98678.38
2022-08-14T21:18:47.542Z,98681.13
2022-08-14T21:20:49.767Z,98685.34
2022-08-14T21:22:51.554Z,98686.81
2022-08-14T21:25:02.044Z,98691.25
2022-08-14T21:27:12.985Z,98685.72
2022-08-14T21:29:23.824Z,98689.31
2022-08-14T21:31:29.957Z,98683.53
2022-08-14T21:33:34.392Z,98679.63
2022-08-14T21:35:44.455Z,98672.09
2022-08-14T21:37:47.935Z,98676.34
2022-08-14T21:39:57.200Z,98678.66
2022-08-14T21:42:00.634Z,98673.72
2022-08-14T21:44:17.652Z,98684.34
2022-08-14T21:46:22.242Z,98680.47
2022-08-14T21:48:32.049Z,98687.84
2022-08-14T21:50:56.682Z,98682.91
2022-08-14T21:53:01.019Z,98684.38
2022-08-14T21:55:12.392Z,98680.28
2022-08-14T21:57:16.031Z,98686.00
2022-08-14T21:59:24.451Z,98682.31
2022-08-14T22:02:01.809Z,98683.34
2022-08-14T22:03:55.964Z,98683.75
2022-08-14T22:05:59.390Z,98679.47
2022-08-14T22:08:06.751Z,98677.28
2022-08-14T22:10:11.266Z,98683.88
2022-08-14T22:12:45.272Z,98682.38
2022-08-14T22:14:43.121Z,98674.00
2022-08-14T22:17:00.098Z,98679.06
2022-08-14T22:19:13.673Z,98673.47
2022-08-14T22:21:16.568Z,98666.63
2022-08-14T22:23:19.622Z,98669.13
2022-08-14T22:25:21.797Z,98672.03
2022-08-14T22:27:24.013Z,98675.16
2022-08-14T22:29:25.857Z,98683.81
2022-08-14T22:31:34.830Z,98679.47
2022-08-14T22:33:38.554Z,98686.78
2022-08-14T22:35:41.189Z,98677.44
2022-08-14T22:37:45.103Z,98683.53
2022-08-14T22:40:48.356Z,98679.09
2022-08-14T22:42:21.247Z,98684.16
2022-08-14T22:44:29.174Z,98682.34
2022-08-14T22:46:31.154Z,98680.34
2022-08-14T22:48:33.010Z,98683.66
2022-08-14T22:50:34.851Z,98679.38
2022-08-14T22:52:50.898Z,98674.25
2022-08-14T22:54:53.967Z,98681.56
2022-08-14T22:56:56.746Z,98686.81
2022-08-14T22:59:03.476Z,98682.53
2022-08-14T23:01:22.660Z,98692.22
2022-08-14T23:03:24.819Z,98684.66
2022-08-14T23:05:40.072Z,98679.47
2022-08-14T23:08:58.073Z,98684.22
2022-08-14T23:10:33.848Z,98691.44
2022-08-14T23:12:42.880Z,98687.13
2022-08-14T23:14:44.760Z,98687.44
2022-08-14T23:16:47.294Z,98690.06
2022-08-14T23:18:54.078Z,98684.88
2022-08-14T23:20:56.878Z,98681.03
2022-08-14T23:22:59.325Z,98680.19
2022-08-14T23:25:01.290Z,98680.72
2022-08-14T23:27:09.224Z,98684.03
2022-08-14T23:29:13.356Z,98675.56
2022-08-14T23:31:34.317Z,98666.56
2022-08-14T23:33:45.740Z,98673.91
2022-08-14T23:35:59.107Z,98668.25
2022-08-14T23:38:01.995Z,98670.13
2022-08-14T23:40:04.369Z,98666.41
2022-08-14T23:42:39.968Z,98662.13
2022-08-14T23:44:45.900Z,98661.13
2022-08-14T23:46:49.341Z,98666.97
2022-08-14T23:48:54.488Z,98660.38
2022-08-14T23:50:56.959Z,98651.09
2022-08-14T23:53:07.100Z,98650.56
2022-08-14T23:55:11.478Z,98650.84
2022-08-14T23:57:13.596Z,98648.22
2022-08-14T23:59:16.301Z,98652.50
